Armstrong Mills, Ohio
Current Conditions -  °F | °C
As of 11:53 AM on Monday 22 Dec 2014 (Local Time) from KHLG Reporting Station
Clear Clear  
Wind Chill: 40°   Ceiling: Unl
Heat Index: 44°   Visibility: 10mi
Dew Point: 31°   Wind: 8mph
Humidity: 60%   Direction: 120°ESE
Pressure: 30.03"   Gusts: NA
Location:  39.9375°N, 80.8976°W
Report Text: KHLG 221653Z 12007KT 10SM CLR 07/M01 A3003 RMK AO2 SLP183 T00671006
Loading
Personal Weather Stations






























Interactive Weather Map New forecast layout! Learn more

10-Day Weather Forecast

Advertisements
Track Severe Weather on mobile